Time;durP1;ratioP1;P1;durP2;ratioP2;P2;SDS_P1;SDS_P2;PMS_P1;PMS_P2;Temp;Humidity;BMP_temperature;BMP_pressure;BME280_temperature;BME280_humidity;BME280_pressure;Samples;Min_cycle;Max_cycle;Signal;HPM_P1;HPM_P2
2023/09/24 00:00:13;;;;;;;2.60;1.10;;;21.50;97.60;;;;;;4982664;28;21719;-53
2023/09/24 00:02:40;;;;;;;1.50;1.10;;;21.50;97.60;;;;;;4979430;28;20463;-60
2023/09/24 00:05:08;;;;;;;1.30;1.03;;;21.50;97.60;;;;;;4976589;28;20464;-51
2023/09/24 00:07:35;;;;;;;1.50;1.27;;;21.50;97.60;;;;;;4986533;28;20455;-49
2023/09/24 00:10:03;;;;;;;1.67;1.30;;;21.50;97.60;;;;;;4983914;28;20479;-54
2023/09/24 00:12:30;;;;;;;4.13;1.07;;;21.50;97.60;;;;;;4982716;28;20467;-57
2023/09/24 00:14:58;;;;;;;1.67;1.00;;;21.50;97.60;;;;;;4979451;28;20588;-56
2023/09/24 00:17:25;;;;;;;2.33;1.10;;;21.50;97.70;;;;;;4984903;28;20476;-58
2023/09/24 00:19:52;;;;;;;3.00;1.27;;;21.50;97.70;;;;;;4986051;28;20461;-52
2023/09/24 00:22:18;;;;;;;2.60;1.23;;;21.50;97.70;;;;;;4979916;28;20470;-58
2023/09/24 00:24:46;;;;;;;1.73;1.10;;;21.50;97.70;;;;;;4976663;28;20997;-59
2023/09/24 00:27:14;;;;;;;1.40;1.00;;;21.50;97.70;;;;;;4978932;28;20542;-56
2023/09/24 00:29:41;;;;;;;1.17;1.07;;;21.50;97.80;;;;;;4982441;28;20510;-59
2023/09/24 00:32:09;;;;;;;1.20;1.10;;;21.50;97.80;;;;;;4985692;28;20475;-55
2023/09/24 00:34:36;;;;;;;1.80;1.20;;;21.50;97.80;;;;;;4990139;28;20465;-59
2023/09/24 00:37:02;;;;;;;1.30;1.20;;;21.50;97.80;;;;;;4984706;28;20447;-60
2023/09/24 00:39:30;;;;;;;1.43;1.13;;;21.50;97.80;;;;;;4984276;28;20906;-61
2023/09/24 00:41:56;;;;;;;1.63;1.00;;;21.50;97.80;;;;;;4984690;28;20463;-56
2023/09/24 00:44:23;;;;;;;1.80;0.90;;;21.40;97.80;;;;;;4986815;28;20812;-57
2023/09/24 00:46:50;;;;;;;1.40;1.20;;;21.50;97.80;;;;;;4987726;28;20463;-51
2023/09/24 00:49:19;;;;;;;1.37;1.20;;;21.40;97.80;;;;;;4986127;28;21050;-52
2023/09/24 00:51:48;;;;;;;1.43;1.20;;;21.40;97.80;;;;;;4985935;28;20489;-56
2023/09/24 00:54:15;;;;;;;1.40;1.10;;;21.40;97.80;;;;;;4984198;28;20465;-51
2023/09/24 00:56:42;;;;;;;1.80;1.60;;;21.40;97.80;;;;;;4979218;28;21172;-50
2023/09/24 00:59:09;;;;;;;1.33;1.23;;;21.40;97.80;;;;;;4985013;28;20554;-49
2023/09/24 01:01:36;;;;;;;1.53;1.20;;;21.40;97.80;;;;;;4986713;28;20808;-55
2023/09/24 01:04:05;;;;;;;1.30;1.20;;;21.50;97.80;;;;;;4989704;28;20622;-51
2023/09/24 01:06:34;;;;;;;1.23;1.13;;;21.50;97.80;;;;;;4988340;28;20462;-53
2023/09/24 01:09:03;;;;;;;1.50;1.20;;;21.50;97.90;;;;;;4988291;28;21073;-50
2023/09/24 01:11:31;;;;;;;1.43;1.10;;;21.50;97.80;;;;;;4980634;28;20474;-55
2023/09/24 01:13:58;;;;;;;1.57;1.20;;;21.40;97.80;;;;;;4987331;28;20467;-57
2023/09/24 01:16:24;;;;;;;1.23;1.10;;;21.40;97.70;;;;;;4984590;28;20471;-55
2023/09/24 01:18:53;;;;;;;2.27;1.50;;;21.40;97.80;;;;;;4986559;28;20469;-54
2023/09/24 01:21:20;;;;;;;1.50;1.10;;;21.40;97.80;;;;;;4985712;28;20820;-59
2023/09/24 01:23:49;;;;;;;1.30;1.13;;;21.40;97.80;;;;;;4988669;28;20200;-53
2023/09/24 01:26:17;;;;;;;1.67;1.20;;;21.50;98.30;;;;;;4985985;28;20591;-51
2023/09/24 01:28:44;;;;;;;1.40;0.93;;;21.40;97.80;;;;;;4987398;28;21193;-55
2023/09/24 01:31:11;;;;;;;1.70;1.40;;;21.40;97.80;;;;;;4980712;28;20479;-58
2023/09/24 01:33:39;;;;;;;1.10;1.00;;;21.40;97.80;;;;;;4986633;28;20467;-55
2023/09/24 01:36:08;;;;;;;1.20;1.00;;;21.40;97.80;;;;;;4987310;28;20614;-54
2023/09/24 01:38:34;;;;;;;1.23;1.10;;;21.40;97.80;;;;;;4987828;28;20375;-54
2023/09/24 01:41:04;;;;;;;1.60;1.27;;;21.40;97.80;;;;;;4985573;28;20601;-48
2023/09/24 01:43:33;;;;;;;1.83;1.23;;;21.40;97.80;;;;;;4988019;28;20469;-55
2023/09/24 01:46:00;;;;;;;1.60;1.30;;;21.40;97.80;;;;;;4986628;28;20201;-60
2023/09/24 01:48:26;;;;;;;1.20;1.00;;;21.40;97.80;;;;;;4986275;28;20688;-56
2023/09/24 01:50:53;;;;;;;1.47;1.27;;;21.40;97.80;;;;;;4987768;28;20824;-55
2023/09/24 01:53:20;;;;;;;2.33;1.60;;;21.40;97.80;;;;;;4988246;28;20477;-58
2023/09/24 01:55:47;;;;;;;1.10;0.90;;;21.40;97.80;;;;;;4987598;28;20459;-49
2023/09/24 01:58:15;;;;;;;1.53;1.20;;;21.40;97.80;;;;;;4987521;28;21100;-57
2023/09/24 02:00:42;;;;;;;1.50;1.10;;;21.40;97.80;;;;;;4987638;28;20471;-53
2023/09/24 02:03:11;;;;;;;1.40;1.02;;;21.40;97.80;;;;;;4987069;28;20471;-54
2023/09/24 02:05:39;;;;;;;1.50;1.20;;;21.40;97.80;;;;;;4988230;28;20204;-55
2023/09/24 02:08:09;;;;;;;1.60;1.50;;;21.40;97.80;;;;;;4990825;28;20463;-61
2023/09/24 02:10:39;;;;;;;1.73;1.00;;;21.40;97.80;;;;;;4992317;28;20557;-56
2023/09/24 02:13:07;;;;;;;1.67;1.57;;;21.40;97.80;;;;;;4990463;28;20815;-50
2023/09/24 02:15:35;;;;;;;1.40;1.20;;;21.40;97.80;;;;;;4989740;28;20479;-54
2023/09/24 02:18:04;;;;;;;3.67;1.40;;;21.40;97.90;;;;;;4990218;28;20920;-58
2023/09/24 02:20:32;;;;;;;1.37;1.27;;;21.40;97.90;;;;;;4989733;28;20201;-55
2023/09/24 02:23:01;;;;;;;1.52;1.00;;;21.40;97.90;;;;;;4988742;28;20469;-56
2023/09/24 02:25:29;;;;;;;1.30;1.20;;;21.40;97.90;;;;;;4989757;28;20207;-60
2023/09/24 02:27:56;;;;;;;1.30;1.20;;;21.30;97.80;;;;;;4989283;28;20471;-54
2023/09/24 02:30:24;;;;;;;1.50;1.10;;;21.40;97.80;;;;;;4987490;28;20588;-53
2023/09/24 02:32:52;;;;;;;1.35;1.25;;;21.40;97.80;;;;;;4984751;28;20451;-59
2023/09/24 02:35:19;;;;;;;1.20;1.07;;;21.30;97.80;;;;;;4991652;28;21341;-51
2023/09/24 02:37:48;;;;;;;1.35;1.15;;;21.30;97.80;;;;;;4991688;28;20463;-52
2023/09/24 02:40:17;;;;;;;1.10;1.00;;;21.40;97.90;;;;;;4987641;28;20256;-57
2023/09/24 02:42:46;;;;;;;1.57;1.03;;;21.30;97.80;;;;;;4988331;28;20468;-48
2023/09/24 02:45:15;;;;;;;1.65;1.38;;;21.30;97.80;;;;;;4988660;28;20947;-56
2023/09/24 02:47:42;;;;;;;1.30;1.00;;;21.30;97.80;;;;;;4991154;28;20647;-49
2023/09/24 02:50:13;;;;;;;1.38;1.20;;;21.40;97.90;;;;;;4992224;28;20815;-58
2023/09/24 02:52:40;;;;;;;1.87;1.10;;;21.30;97.80;;;;;;4987351;28;20455;-54
2023/09/24 02:55:08;;;;;;;2.47;1.55;;;21.30;97.80;;;;;;4990893;28;20604;-60
2023/09/24 02:57:35;;;;;;;1.40;1.20;;;21.30;97.80;;;;;;4991190;28;20641;-62
2023/09/24 03:00:02;;;;;;;1.67;1.30;;;21.30;97.80;;;;;;4988548;28;20698;-52
2023/09/24 03:02:29;;;;;;;1.67;1.57;;;21.30;97.80;;;;;;4990443;28;20481;-53
2023/09/24 03:04:56;;;;;;;1.43;1.10;;;21.30;97.80;;;;;;4990031;28;20843;-52
2023/09/24 03:07:24;;;;;;;1.93;1.00;;;21.30;97.80;;;;;;4990980;28;20471;-53
2023/09/24 03:09:53;;;;;;;1.60;1.30;;;21.30;97.90;;;;;;4990880;28;20468;-55
2023/09/24 03:12:19;;;;;;;1.15;1.02;;;21.30;97.80;;;;;;4988496;28;20554;-60
2023/09/24 03:14:46;;;;;;;1.75;1.20;;;21.30;97.90;;;;;;4989263;28;20679;-50
2023/09/24 03:17:13;;;;;;;1.40;1.30;;;21.30;97.90;;;;;;4988413;28;20212;-54
2023/09/24 03:19:40;;;;;;;1.30;1.10;;;21.30;97.90;;;;;;4989295;28;21252;-50
2023/09/24 03:22:06;;;;;;;1.37;1.13;;;21.30;97.90;;;;;;4992022;28;20489;-49
2023/09/24 03:24:34;;;;;;;4.00;1.27;;;21.30;97.90;;;;;;4987801;28;20458;-55
2023/09/24 03:27:02;;;;;;;1.20;1.00;;;21.30;97.90;;;;;;4990321;28;20482;-58
2023/09/24 03:29:28;;;;;;;1.87;1.10;;;21.30;97.90;;;;;;4986792;28;20203;-47
2023/09/24 03:31:55;;;;;;;1.57;1.20;;;21.30;97.90;;;;;;4988123;28;21528;-53
2023/09/24 03:34:22;;;;;;;1.80;1.40;;;21.30;97.90;;;;;;4988508;28;20455;-49
2023/09/24 03:36:48;;;;;;;1.40;1.10;;;21.30;97.90;;;;;;4990797;28;20462;-59
2023/09/24 03:39:15;;;;;;;1.20;1.10;;;21.30;97.90;;;;;;4989023;28;20455;-54
2023/09/24 03:41:43;;;;;;;1.40;1.10;;;21.30;97.90;;;;;;4989698;28;20462;-60
2023/09/24 03:44:11;;;;;;;1.53;1.30;;;21.30;97.90;;;;;;4987948;28;21284;-52
2023/09/24 03:46:38;;;;;;;1.43;1.30;;;21.30;97.90;;;;;;4989041;28;20464;-54
2023/09/24 03:49:04;;;;;;;1.23;1.13;;;21.20;97.90;;;;;;4989725;28;20460;-54
2023/09/24 03:51:31;;;;;;;1.10;0.97;;;21.30;97.90;;;;;;4989824;28;20471;-58
2023/09/24 03:53:58;;;;;;;1.30;1.20;;;21.20;97.90;;;;;;4986974;28;20451;-55
2023/09/24 03:56:25;;;;;;;1.75;1.10;;;21.30;97.90;;;;;;4988048;28;20463;-62
2023/09/24 03:58:53;;;;;;;1.10;1.00;;;21.20;97.90;;;;;;4978086;28;20207;-57
2023/09/24 04:01:20;;;;;;;1.30;1.20;;;21.30;98.00;;;;;;4988467;28;20504;-52
2023/09/24 04:03:47;;;;;;;1.57;1.10;;;21.20;97.90;;;;;;4989040;28;20470;-52
2023/09/24 04:06:14;;;;;;;1.10;0.90;;;21.30;97.90;;;;;;4987690;28;20467;-62
2023/09/24 04:08:41;;;;;;;1.40;1.30;;;21.20;97.90;;;;;;4989665;28;20490;-54
2023/09/24 04:11:08;;;;;;;1.33;1.17;;;21.30;98.00;;;;;;4989023;28;20572;-57
2023/09/24 04:13:36;;;;;;;1.20;1.10;;;21.20;97.90;;;;;;4988818;28;20463;-57
2023/09/24 04:16:12;;;;;;;1.50;1.17;;;21.20;97.90;;;;;;4987831;28;20196;-55
2023/09/24 04:18:39;;;;;;;1.20;1.10;;;21.20;97.90;;;;;;4987134;28;20581;-58
2023/09/24 04:21:15;;;;;;;1.50;1.15;;;21.20;97.90;;;;;;4989116;28;20292;-52
2023/09/24 04:23:42;;;;;;;1.50;1.10;;;21.20;97.90;;;;;;4989927;28;20215;-55
2023/09/24 04:26:09;;;;;;;1.27;1.17;;;21.20;97.90;;;;;;4988265;28;20455;-57
2023/09/24 04:28:36;;;;;;;1.30;1.20;;;21.20;98.00;;;;;;4983764;28;20325;-58
2023/09/24 04:31:03;;;;;;;1.40;1.20;;;21.20;97.90;;;;;;4985865;28;20426;-55
2023/09/24 04:33:32;;;;;;;1.30;1.20;;;21.20;98.00;;;;;;4986081;28;20211;-56
2023/09/24 04:35:59;;;;;;;1.27;1.13;;;21.20;98.00;;;;;;4989179;28;21004;-56
2023/09/24 04:38:25;;;;;;;1.20;1.10;;;21.20;97.90;;;;;;4987705;28;20632;-54
2023/09/24 04:40:52;;;;;;;1.33;1.20;;;21.20;97.90;;;;;;4989789;28;20463;-54
2023/09/24 04:43:19;;;;;;;1.80;1.17;;;21.20;98.00;;;;;;4989080;28;20270;-59
2023/09/24 04:45:46;;;;;;;1.40;1.30;;;21.20;98.00;;;;;;4988792;28;20215;-61
2023/09/24 04:48:12;;;;;;;1.63;1.30;;;21.20;98.00;;;;;;4986825;28;20471;-60
2023/09/24 04:50:41;;;;;;;1.60;1.30;;;21.20;98.00;;;;;;4989186;28;20196;-50
2023/09/24 04:53:08;;;;;;;1.23;1.13;;;21.20;98.00;;;;;;4988259;28;20479;-58
2023/09/24 04:55:35;;;;;;;1.30;1.20;;;21.20;98.00;;;;;;4986595;28;20201;-54
2023/09/24 04:58:02;;;;;;;1.53;1.30;;;21.20;98.00;;;;;;4988261;28;20699;-58
2023/09/24 05:00:30;;;;;;;1.10;0.90;;;21.20;98.00;;;;;;4987589;28;20486;-49
2023/09/24 05:02:57;;;;;;;1.20;1.10;;;21.20;98.00;;;;;;4986476;28;20459;-53
2023/09/24 05:05:24;;;;;;;4.40;1.17;;;21.10;97.90;;;;;;4989867;28;20196;-60
2023/09/24 05:07:53;;;;;;;1.00;0.87;;;21.20;98.00;;;;;;4987622;28;20199;-53
2023/09/24 05:10:20;;;;;;;2.38;1.30;;;21.20;98.00;;;;;;4988142;28;20469;-59
2023/09/24 05:12:47;;;;;;;1.15;0.90;;;21.10;97.90;;;;;;4989717;28;20220;-52
2023/09/24 05:15:14;;;;;;;1.23;1.10;;;21.20;98.00;;;;;;4980322;28;20287;-53
2023/09/24 05:17:40;;;;;;;1.80;1.45;;;21.20;98.00;;;;;;4988951;28;20473;-54
2023/09/24 05:20:09;;;;;;;1.10;0.90;;;21.20;98.00;;;;;;4988455;28;20276;-47
2023/09/24 05:22:35;;;;;;;1.08;0.90;;;21.10;97.90;;;;;;4990048;28;20578;-61
2023/09/24 05:25:04;;;;;;;1.10;1.00;;;21.10;98.00;;;;;;4988978;28;20196;-52
2023/09/24 05:27:33;;;;;;;1.30;1.10;;;21.10;98.00;;;;;;4990083;28;20931;-54
2023/09/24 05:30:00;;;;;;;1.40;1.20;;;21.10;98.00;;;;;;4990563;28;20204;-58
2023/09/24 05:32:27;;;;;;;1.50;1.23;;;21.10;98.00;;;;;;4986661;28;20692;-60
2023/09/24 05:34:54;;;;;;;1.43;1.10;;;21.10;98.00;;;;;;4991719;28;21007;-56
2023/09/24 05:37:21;;;;;;;1.40;1.30;;;21.10;98.00;;;;;;4991419;28;20904;-47
2023/09/24 05:39:47;;;;;;;1.17;1.07;;;21.10;98.00;;;;;;4991083;28;20675;-51
2023/09/24 05:42:16;;;;;;;1.90;1.20;;;21.10;98.00;;;;;;4990706;28;20467;-56
2023/09/24 05:44:43;;;;;;;1.20;1.10;;;21.10;98.00;;;;;;4991009;28;20462;-58
2023/09/24 05:47:10;;;;;;;1.30;1.07;;;21.10;98.00;;;;;;4985645;28;20207;-55
2023/09/24 05:49:38;;;;;;;2.00;1.20;;;21.10;98.00;;;;;;4992879;28;20971;-51
2023/09/24 05:52:04;;;;;;;1.63;1.25;;;21.10;98.00;;;;;;4991323;28;20588;-55
2023/09/24 05:54:31;;;;;;;2.00;1.50;;;21.10;98.00;;;;;;4991099;28;20219;-60
2023/09/24 05:56:58;;;;;;;1.20;1.05;;;21.10;98.00;;;;;;4990034;28;20207;-61
2023/09/24 05:59:26;;;;;;;1.20;1.00;;;21.10;98.00;;;;;;4990524;28;20197;-50
2023/09/24 06:01:53;;;;;;;1.10;1.00;;;21.10;98.00;;;;;;4989445;28;20956;-57
2023/09/24 06:04:20;;;;;;;1.42;1.20;;;21.10;98.10;;;;;;4989535;28;20212;-60
2023/09/24 06:06:47;;;;;;;1.33;1.23;;;21.10;98.00;;;;;;4990668;28;20192;-55
2023/09/24 06:09:16;;;;;;;1.33;1.23;;;21.10;98.00;;;;;;4990420;28;20266;-56
2023/09/24 06:11:45;;;;;;;1.40;1.20;;;21.10;98.10;;;;;;4989197;28;20243;-58
2023/09/24 06:14:11;;;;;;;1.40;1.30;;;21.10;98.10;;;;;;4990313;28;20669;-60
2023/09/24 06:16:40;;;;;;;1.48;1.00;;;21.10;98.10;;;;;;4991426;28;20197;-60
2023/09/24 06:19:07;;;;;;;1.58;1.10;;;21.10;98.20;;;;;;4992233;28;20232;-56
2023/09/24 06:21:34;;;;;;;2.17;1.60;;;21.10;98.20;;;;;;4988484;28;21888;-49
2023/09/24 06:24:00;;;;;;;2.40;2.20;;;21.10;98.30;;;;;;4991989;28;20204;-57
2023/09/24 06:26:28;;;;;;;11.05;2.97;;;21.00;96.00;;;;;;4991059;28;20761;-55
2023/09/24 06:28:55;;;;;;;2.75;2.38;;;21.00;94.60;;;;;;4987878;28;20203;-55
2023/09/24 06:31:22;;;;;;;3.10;1.60;;;21.00;94.40;;;;;;4991451;28;20196;-56
2023/09/24 06:33:50;;;;;;;2.53;1.55;;;20.90;95.50;;;;;;4989178;28;20270;-57
2023/09/24 06:36:17;;;;;;;2.88;1.50;;;21.00;96.60;;;;;;4986562;28;20208;-62
2023/09/24 06:38:44;;;;;;;1.58;1.48;;;20.90;97.00;;;;;;4992022;28;20201;-56
2023/09/24 06:41:10;;;;;;;2.70;2.03;;;21.00;97.00;;;;;;4991273;28;21824;-51
2023/09/24 06:43:37;;;;;;;6.03;1.75;;;21.00;97.00;;;;;;4992560;28;20548;-54
2023/09/24 06:46:05;;;;;;;14.90;1.98;;;21.00;97.00;;;;;;4990667;28;20303;-60
2023/09/24 06:48:32;;;;;;;1.40;1.30;;;21.00;97.10;;;;;;4988820;28;20199;-55
2023/09/24 06:51:07;;;;;;;2.20;1.75;;;21.00;97.10;;;;;;4989668;28;20206;-53
2023/09/24 06:53:34;;;;;;;1.60;1.33;;;21.00;97.10;;;;;;4989016;28;20314;-50
2023/09/24 06:56:04;;;;;;;3.60;1.50;;;21.00;97.20;;;;;;4991168;28;20560;-55
2023/09/24 06:58:33;;;;;;;1.88;1.67;;;21.00;97.20;;;;;;4991020;28;20517;-51
2023/09/24 07:01:01;;;;;;;2.40;1.40;;;21.00;97.20;;;;;;4990402;28;20334;-50
2023/09/24 07:03:28;;;;;;;1.77;1.67;;;21.00;97.20;;;;;;4985368;28;20200;-50
2023/09/24 07:05:54;;;;;;;2.28;1.45;;;21.00;97.20;;;;;;4991011;28;20275;-52
2023/09/24 07:08:23;;;;;;;1.90;1.40;;;21.00;97.20;;;;;;4990004;28;20208;-57
2023/09/24 07:11:23;;;;;;;2.00;1.70;;;21.00;97.30;;;;;;4991728;28;21552;-51
2023/09/24 07:13:49;;;;;;;1.47;1.37;;;21.00;97.30;;;;;;4990993;28;20228;-50
2023/09/24 07:16:16;;;;;;;1.83;1.67;;;21.00;97.30;;;;;;4991970;28;20470;-61
2023/09/24 07:18:43;;;;;;;3.08;1.50;;;21.00;97.40;;;;;;4990387;28;20193;-55
2023/09/24 07:21:10;;;;;;;3.05;1.60;;;21.00;97.40;;;;;;4992486;28;20210;-55
2023/09/24 07:23:39;;;;;;;2.00;1.70;;;21.00;97.40;;;;;;4990271;28;20196;-55
2023/09/24 07:26:08;;;;;;;1.93;1.33;;;21.00;97.40;;;;;;4990437;28;20207;-55
2023/09/24 07:28:34;;;;;;;1.83;1.50;;;21.00;97.40;;;;;;4987074;28;20455;-52
2023/09/24 07:31:01;;;;;;;2.03;1.60;;;21.00;97.40;;;;;;4988312;28;20232;-58
2023/09/24 07:33:28;;;;;;;2.47;1.55;;;21.00;97.50;;;;;;4989021;28;20220;-52
2023/09/24 07:35:55;;;;;;;1.33;1.13;;;21.00;97.50;;;;;;4989042;28;20203;-56
2023/09/24 07:38:21;;;;;;;2.58;1.60;;;21.00;97.50;;;;;;4987752;28;20957;-57
2023/09/24 07:40:49;;;;;;;2.17;1.25;;;21.00;97.50;;;;;;4989979;28;20200;-48
2023/09/24 07:43:16;;;;;;;1.83;1.40;;;21.00;97.60;;;;;;4988842;28;20217;-60
2023/09/24 07:45:43;;;;;;;2.03;1.50;;;21.00;97.60;;;;;;4988762;28;20202;-57
2023/09/24 07:48:13;;;;;;;3.08;1.70;;;21.00;97.80;;;;;;4985524;28;20467;-59
2023/09/24 07:50:41;;;;;;;2.00;1.48;;;21.00;97.60;;;;;;4987803;28;20204;-57
2023/09/24 07:53:09;;;;;;;1.20;1.10;;;21.00;97.60;;;;;;4989136;28;20220;-53
2023/09/24 07:55:37;;;;;;;2.53;1.13;;;21.00;97.70;;;;;;4985323;28;20569;-54
2023/09/24 07:58:06;;;;;;;2.13;1.38;;;21.00;97.60;;;;;;4989769;28;20205;-55
2023/09/24 08:00:32;;;;;;;7.43;1.70;;;21.00;97.70;;;;;;4988886;28;20694;-55
2023/09/24 08:03:00;;;;;;;1.63;1.52;;;21.00;97.70;;;;;;4985491;28;20463;-56
2023/09/24 08:05:27;;;;;;;1.40;1.20;;;21.00;97.70;;;;;;4988436;28;20227;-53
2023/09/24 08:07:53;;;;;;;1.88;1.50;;;21.00;97.70;;;;;;4990257;28;20675;-60
2023/09/24 08:10:20;;;;;;;1.35;1.20;;;21.00;97.70;;;;;;4987523;28;21058;-53
2023/09/24 08:12:47;;;;;;;2.70;1.47;;;21.10;97.80;;;;;;4989575;28;20227;-52
2023/09/24 08:15:15;;;;;;;1.95;1.40;;;21.00;97.70;;;;;;4988403;28;20718;-49
2023/09/24 08:17:42;;;;;;;2.17;1.43;;;21.00;97.70;;;;;;4989046;28;20200;-57
2023/09/24 08:20:09;;;;;;;1.50;1.20;;;21.10;97.80;;;;;;4985566;28;20473;-51
2023/09/24 08:22:36;;;;;;;1.60;1.50;;;21.10;97.80;;;;;;4989207;28;20547;-59
2023/09/24 08:25:04;;;;;;;2.20;1.40;;;21.00;97.70;;;;;;4984725;28;20467;-53
2023/09/24 08:27:31;;;;;;;2.40;2.20;;;21.00;97.60;;;;;;4984886;28;20645;-52
2023/09/24 08:29:58;;;;;;;2.10;1.73;;;21.00;97.50;;;;;;4985325;28;20200;-62
2023/09/24 08:32:26;;;;;;;5.55;2.20;;;21.00;97.50;;;;;;4984605;28;20477;-55
2023/09/24 08:34:53;;;;;;;3.70;1.60;;;21.00;97.40;;;;;;4985972;28;20209;-53
2023/09/24 08:37:19;;;;;;;3.20;1.83;;;21.00;97.30;;;;;;4985515;28;20200;-53
2023/09/24 08:39:46;;;;;;;3.83;1.80;;;21.00;97.30;;;;;;4987042;28;20828;-60
2023/09/24 08:42:15;;;;;;;2.85;1.95;;;21.00;97.20;;;;;;4985020;28;20469;-50
2023/09/24 08:44:42;;;;;;;4.50;1.87;;;21.00;97.20;;;;;;4989009;28;21987;-56
2023/09/24 08:47:10;;;;;;;2.43;2.23;;;21.00;97.30;;;;;;4985286;28;20459;-54
2023/09/24 08:49:38;;;;;;;2.93;1.70;;;21.00;97.20;;;;;;4985278;28;20475;-48
2023/09/24 08:52:07;;;;;;;4.27;2.53;;;21.00;97.20;;;;;;4986699;28;21035;-55
2023/09/24 08:54:35;;;;;;;3.47;2.57;;;21.00;97.10;;;;;;4981598;28;20464;-54
2023/09/24 08:57:02;;;;;;;1.87;1.50;;;20.90;97.00;;;;;;4984802;28;20612;-50
2023/09/24 08:59:29;;;;;;;3.07;1.97;;;20.90;97.10;;;;;;4984323;28;21282;-56
2023/09/24 09:01:56;;;;;;;2.35;1.73;;;21.00;97.10;;;;;;4984535;28;20475;-50
2023/09/24 09:04:22;;;;;;;4.13;1.83;;;21.00;97.00;;;;;;4982640;28;20571;-56
2023/09/24 09:06:51;;;;;;;3.42;1.60;;;20.90;97.00;;;;;;4985528;28;20207;-54
2023/09/24 09:09:24;;;;;;;2.72;1.90;;;21.00;97.20;;;;;;4982061;28;20204;-58
2023/09/24 09:11:51;;;;;;;3.22;2.20;;;21.00;97.30;;;;;;4981813;28;20204;-58
2023/09/24 09:14:34;;;;;;;24.95;2.55;;;21.00;97.30;;;;;;4985641;28;20229;-60
2023/09/24 09:17:01;;;;;;;5.60;1.70;;;21.00;97.30;;;;;;4981462;28;20274;-60
2023/09/24 09:19:28;;;;;;;3.95;2.05;;;21.00;97.30;;;;;;4984665;28;20630;-62
2023/09/24 09:21:56;;;;;;;2.30;1.80;;;21.00;97.30;;;;;;4985365;28;20205;-60
2023/09/24 09:24:24;;;;;;;4.15;2.20;;;21.00;97.30;;;;;;4986512;28;20462;-50
2023/09/24 09:26:54;;;;;;;4.30;1.90;;;21.00;97.30;;;;;;4982444;28;20198;-53
2023/09/24 09:29:22;;;;;;;3.28;2.00;;;21.00;97.30;;;;;;4984540;28;20235;-53
2023/09/24 09:31:49;;;;;;;2.60;2.40;;;21.00;97.30;;;;;;4982466;28;20448;-57
2023/09/24 09:34:16;;;;;;;3.97;1.85;;;21.00;97.30;;;;;;4984484;28;21610;-48
2023/09/24 09:36:43;;;;;;;3.28;2.05;;;21.00;97.30;;;;;;4980114;28;20202;-56
2023/09/24 09:39:11;;;;;;;2.25;1.73;;;21.00;97.30;;;;;;4986778;28;20422;-50
2023/09/24 09:41:42;;;;;;;3.40;2.40;;;21.00;97.30;;;;;;4984876;28;20211;-52
2023/09/24 09:44:09;;;;;;;2.15;1.80;;;21.00;97.30;;;;;;4985040;28;20543;-54
2023/09/24 09:46:38;;;;;;;3.38;2.25;;;21.00;97.30;;;;;;4983638;28;20591;-51
2023/09/24 09:49:08;;;;;;;3.90;1.95;;;21.00;97.30;;;;;;4985939;28;20373;-59
2023/09/24 09:51:39;;;;;;;3.47;1.83;;;21.10;97.30;;;;;;4984237;28;20895;-53
2023/09/24 09:54:07;;;;;;;2.03;1.27;;;21.00;97.30;;;;;;4979095;28;20380;-54
2023/09/24 09:56:37;;;;;;;1.90;1.50;;;21.00;97.30;;;;;;4986369;28;20588;-56
2023/09/24 09:59:05;;;;;;;1.80;1.37;;;21.00;97.30;;;;;;4979755;28;20201;-53
2023/09/24 10:01:31;;;;;;;2.03;1.70;;;21.00;97.30;;;;;;4980441;28;20463;-54
2023/09/24 10:04:02;;;;;;;2.50;1.60;;;21.00;97.30;;;;;;4981329;28;20552;-49
2023/09/24 10:06:33;;;;;;;3.83;2.13;;;21.00;97.30;;;;;;4984130;28;20201;-54
2023/09/24 10:09:00;;;;;;;2.38;1.75;;;21.00;97.40;;;;;;4985581;28;20488;-51
2023/09/24 10:11:56;;;;;;;3.67;2.10;;;21.10;97.40;;;;;;4983646;28;20210;-59
2023/09/24 10:14:33;;;;;;;3.53;2.00;;;21.00;97.40;;;;;;4986313;28;20267;-60
2023/09/24 10:17:24;;;;;;;3.95;2.55;;;21.00;97.40;;;;;;4987941;28;20284;-53
2023/09/24 10:19:52;;;;;;;4.30;1.83;;;21.10;97.50;;;;;;4986340;28;20207;-58
2023/09/24 10:22:29;;;;;;;3.72;1.80;;;21.00;97.40;;;;;;4984861;28;20193;-58
2023/09/24 10:24:57;;;;;;;1.80;1.37;;;21.10;97.40;;;;;;4987526;28;20207;-53
2023/09/24 10:27:30;;;;;;;4.55;2.65;;;21.10;97.50;;;;;;4987735;28;20466;-50
2023/09/24 10:30:15;;;;;;;4.35;2.22;;;21.00;97.50;;;;;;4987252;28;20205;-57
2023/09/24 10:32:52;;;;;;;3.35;1.90;;;21.00;97.40;;;;;;4975189;28;20192;-53
2023/09/24 10:35:19;;;;;;;5.35;2.25;;;21.00;97.40;;;;;;4982420;28;20818;-57
2023/09/24 10:38:03;;;;;;;3.10;2.80;;;21.10;97.50;;;;;;4986576;28;20204;-61
2023/09/24 10:40:31;;;;;;;2.00;1.80;;;21.00;97.50;;;;;;4984965;28;20657;-49
2023/09/24 10:43:14;;;;;;;2.40;2.08;;;21.10;97.50;;;;;;4989874;28;20207;-54
2023/09/24 10:45:41;;;;;;;2.05;1.30;;;21.00;97.30;;;;;;4984064;28;20385;-57
2023/09/24 10:48:08;;;;;;;5.07;1.88;;;21.00;97.60;;;;;;4983274;28;20657;-57
2023/09/24 10:50:39;;;;;;;4.15;2.20;;;21.00;97.30;;;;;;4989738;28;20560;-55
2023/09/24 10:53:06;;;;;;;3.53;2.10;;;21.00;97.60;;;;;;4990269;28;20820;-49
2023/09/24 10:55:34;;;;;;;2.45;1.90;;;21.00;97.20;;;;;;4981967;28;20206;-55
2023/09/24 10:58:02;;;;;;;3.03;1.67;;;21.00;97.10;;;;;;4987115;28;20229;-55
2023/09/24 11:00:32;;;;;;;2.47;1.35;;;21.00;96.80;;;;;;4985753;28;20206;-50
2023/09/24 11:03:00;;;;;;;2.65;1.70;;;21.00;96.70;;;;;;4990189;28;20247;-49
2023/09/24 11:05:29;;;;;;;3.85;1.70;;;21.00;96.60;;;;;;4987996;28;20207;-58
2023/09/24 11:07:56;;;;;;;4.22;1.60;;;21.00;96.50;;;;;;4986353;28;20208;-54
2023/09/24 11:10:25;;;;;;;2.30;1.47;;;21.10;96.50;;;;;;4985551;28;20204;-53
2023/09/24 11:12:53;;;;;;;4.00;1.92;;;21.00;96.40;;;;;;4987119;28;20839;-57
2023/09/24 11:15:21;;;;;;;1.92;1.40;;;21.00;96.30;;;;;;4985942;28;20564;-60
2023/09/24 11:17:50;;;;;;;3.08;1.38;;;21.00;96.20;;;;;;4985055;28;20878;-57
2023/09/24 11:20:17;;;;;;;1.80;1.42;;;21.00;96.20;;;;;;4984809;28;20295;-56
2023/09/24 11:22:44;;;;;;;2.60;1.65;;;21.00;96.10;;;;;;4986441;28;20612;-53
2023/09/24 11:25:13;;;;;;;2.65;1.70;;;21.00;96.00;;;;;;4984869;28;20784;-50
2023/09/24 11:27:47;;;;;;;3.60;1.63;;;21.00;95.80;;;;;;4983485;28;20201;-49
2023/09/24 11:30:15;;;;;;;4.25;2.03;;;21.00;95.60;;;;;;4985203;28;20228;-59
2023/09/24 11:32:43;;;;;;;2.25;1.10;;;21.00;95.40;;;;;;4985344;28;20283;-58
2023/09/24 11:35:13;;;;;;;2.70;1.77;;;21.00;95.40;;;;;;4989147;28;20225;-53
2023/09/24 11:37:56;;;;;;;5.88;1.50;;;21.00;95.30;;;;;;4991578;28;20646;-54
2023/09/24 11:40:24;;;;;;;2.78;1.58;;;21.00;95.40;;;;;;4986869;28;20655;-57
2023/09/24 11:42:53;;;;;;;2.10;1.50;;;21.00;95.30;;;;;;4989085;28;20206;-55
2023/09/24 11:45:46;;;;;;;3.53;1.92;;;21.00;95.20;;;;;;4987805;28;20967;-61
2023/09/24 11:48:14;;;;;;;3.15;2.05;;;21.00;95.20;;;;;;4981084;28;20206;-52
2023/09/24 11:50:45;;;;;;;1.42;1.10;;;21.00;95.10;;;;;;4986230;28;20204;-51
2023/09/24 11:53:12;;;;;;;2.90;1.20;;;21.00;95.00;;;;;;4986582;28;20234;-58
2023/09/24 11:55:40;;;;;;;1.98;1.00;;;21.00;94.90;;;;;;4986775;28;20203;-57
2023/09/24 11:58:08;;;;;;;2.28;1.50;;;21.00;94.80;;;;;;4988886;28;20581;-53
2023/09/24 12:00:36;;;;;;;1.38;1.20;;;21.00;94.80;;;;;;4980917;28;20204;-53
2023/09/24 12:03:04;;;;;;;2.75;1.25;;;21.00;94.70;;;;;;4987810;28;20284;-56
2023/09/24 12:05:31;;;;;;;4.35;1.35;;;21.00;94.60;;;;;;4987660;28;20604;-52
2023/09/24 12:07:59;;;;;;;5.40;1.60;;;21.00;94.70;;;;;;4986942;28;20204;-54
2023/09/24 12:10:26;;;;;;;2.92;1.80;;;21.00;94.50;;;;;;4984682;28;20197;-51
2023/09/24 12:12:53;;;;;;;2.55;1.40;;;21.00;94.50;;;;;;4983234;28;20189;-50
2023/09/24 12:15:20;;;;;;;2.50;1.38;;;21.00;94.50;;;;;;4985876;28;20224;-54
2023/09/24 12:17:47;;;;;;;5.82;1.33;;;21.00;94.40;;;;;;4984517;28;20205;-50
2023/09/24 12:20:14;;;;;;;3.47;1.20;;;21.00;94.30;;;;;;4983589;28;20208;-57
2023/09/24 12:22:43;;;;;;;1.50;1.08;;;21.00;94.30;;;;;;4985085;28;20820;-52
2023/09/24 12:25:12;;;;;;;1.70;1.08;;;21.00;94.30;;;;;;4984709;28;20205;-57
2023/09/24 12:27:40;;;;;;;1.80;1.30;;;21.00;94.40;;;;;;4986659;28;20198;-50
2023/09/24 12:30:10;;;;;;;1.63;1.20;;;21.00;94.40;;;;;;4987407;28;20701;-59
2023/09/24 12:32:37;;;;;;;2.58;1.30;;;21.00;94.40;;;;;;4985442;28;20191;-55
2023/09/24 12:35:07;;;;;;;2.38;1.65;;;21.00;94.50;;;;;;4988170;28;20235;-56
2023/09/24 12:37:34;;;;;;;2.22;1.15;;;21.00;94.50;;;;;;4987170;28;20288;-52
2023/09/24 12:40:04;;;;;;;1.52;1.20;;;21.00;94.50;;;;;;4988529;28;20203;-55
2023/09/24 12:42:32;;;;;;;1.75;1.30;;;21.00;94.60;;;;;;4986680;28;20196;-58
2023/09/24 12:44:59;;;;;;;2.27;1.23;;;21.00;94.90;;;;;;4986995;28;20208;-55
2023/09/24 12:47:28;;;;;;;3.57;1.40;;;21.00;94.10;;;;;;4985669;28;20887;-55
2023/09/24 12:49:56;;;;;;;1.87;1.10;;;21.00;94.40;;;;;;4988937;28;20463;-50